createdAt,value
2023-02-17T00:01:46.250Z,7.02
2023-02-17T00:04:16.089Z,7.22
2023-02-17T00:06:53.118Z,7.15
2023-02-17T00:09:19.816Z,7.17
2023-02-17T00:11:46.541Z,7.12
2023-02-17T00:14:26.405Z,7.28
2023-02-17T00:16:53.134Z,7.33
2023-02-17T00:19:26.035Z,7.26
2023-02-17T00:21:58.021Z,7.26
2023-02-17T00:24:26.118Z,7.32
2023-02-17T00:26:53.145Z,7.33
2023-02-17T00:29:24.893Z,7.27
2023-02-17T00:31:53.366Z,7.36
2023-02-17T00:34:23.109Z,7.29
2023-02-17T00:36:49.853Z,7.31
2023-02-17T00:39:17.694Z,7.32
2023-02-17T00:41:44.614Z,7.37
2023-02-17T00:44:19.668Z,7.43
2023-02-17T00:46:53.550Z,7.38
2023-02-17T00:49:23.269Z,7.40
2023-02-17T00:51:50.336Z,7.41
2023-02-17T00:54:17.623Z,7.33
2023-02-17T00:56:44.520Z,7.36
2023-02-17T00:59:14.248Z,7.43
2023-02-17T01:01:43.782Z,7.43
2023-02-17T01:04:15.387Z,7.52
2023-02-17T01:06:44.414Z,7.48
2023-02-17T01:09:18.593Z,7.57
2023-02-17T01:11:45.492Z,7.60
2023-02-17T01:14:15.031Z,7.69
2023-02-17T01:16:46.197Z,7.62
2023-02-17T01:19:21.955Z,7.66
2023-02-17T01:21:48.970Z,7.60
2023-02-17T01:24:15.970Z,7.56
2023-02-17T01:26:50.175Z,7.65
2023-02-17T01:29:17.119Z,7.60
2023-02-17T01:31:46.584Z,7.52
2023-02-17T01:34:20.580Z,7.51
2023-02-17T01:36:47.314Z,7.65
2023-02-17T01:39:17.430Z,7.74
2023-02-17T01:41:53.734Z,7.70
2023-02-17T01:44:23.201Z,7.63
2023-02-17T01:46:55.025Z,7.60
2023-02-17T01:49:39.737Z,7.66
2023-02-17T01:52:12.530Z,7.56
2023-02-17T01:54:48.159Z,7.62
2023-02-17T01:57:18.210Z,7.69
2023-02-17T01:59:45.904Z,7.56
2023-02-17T02:02:12.811Z,7.64
2023-02-17T02:04:44.747Z,7.68
2023-02-17T02:07:18.202Z,7.79
2023-02-17T02:09:51.786Z,7.68
2023-02-17T02:12:24.156Z,7.68
2023-02-17T02:14:52.134Z,7.61
2023-02-17T02:18:01.221Z,7.66
2023-02-17T02:20:57.320Z,7.71
2023-02-17T02:23:50.415Z,7.84
2023-02-17T02:26:25.998Z,7.73
2023-02-17T02:29:08.900Z,7.73
2023-02-17T02:31:54.056Z,7.78
2023-02-17T02:34:34.730Z,7.76
2023-02-17T02:37:26.644Z,7.69
2023-02-17T02:39:57.397Z,7.60
2023-02-17T02:42:25.379Z,7.61
2023-02-17T02:44:52.267Z,7.76
2023-02-17T02:47:52.789Z,7.68
2023-02-17T02:50:44.053Z,7.77
2023-02-17T02:53:16.667Z,7.69
2023-02-17T02:55:53.506Z,7.77
2023-02-17T02:58:25.502Z,7.68
2023-02-17T03:00:56.837Z,7.67
2023-02-17T03:03:36.315Z,7.70
2023-02-17T03:06:08.250Z,7.77
2023-02-17T03:08:37.060Z,7.70
2023-02-17T03:11:04.299Z,7.90
2023-02-17T03:13:39.389Z,7.87
2023-02-17T03:16:08.619Z,7.94
2023-02-17T03:18:36.361Z,7.78
2023-02-17T03:21:09.547Z,7.79
2023-02-17T03:23:38.521Z,7.93
2023-02-17T03:26:05.661Z,7.98
2023-02-17T03:28:32.613Z,7.92
2023-02-17T03:30:59.403Z,7.79
2023-02-17T03:33:26.042Z,7.80
2023-02-17T03:35:55.213Z,7.90
2023-02-17T03:38:25.019Z,7.95
2023-02-17T03:40:56.557Z,7.81
2023-02-17T03:43:32.425Z,7.86
2023-02-17T03:45:59.269Z,8.01
2023-02-17T03:48:26.016Z,8.06
2023-02-17T03:51:12.943Z,7.89
2023-02-17T03:53:42.842Z,7.82
2023-02-17T03:56:10.303Z,7.93
2023-02-17T03:58:37.375Z,7.94
2023-02-17T04:01:04.819Z,7.90
2023-02-17T04:03:31.978Z,7.95
2023-02-17T04:06:00.474Z,7.92
2023-02-17T04:08:27.522Z,8.03
2023-02-17T04:10:59.726Z,7.97
2023-02-17T04:13:32.890Z,7.96
2023-02-17T04:16:01.458Z,7.95
2023-02-17T04:18:28.706Z,7.93
2023-02-17T04:20:55.559Z,8.03
2023-02-17T04:23:24.945Z,8.21
2023-02-17T04:25:59.319Z,8.19
2023-02-17T04:28:26.532Z,8.14
2023-02-17T04:30:58.127Z,8.08
2023-02-17T04:33:24.997Z,8.03
2023-02-17T04:35:51.943Z,8.02
2023-02-17T04:38:26.083Z,8.15
2023-02-17T04:40:56.090Z,8.10
2023-02-17T04:43:26.707Z,8.22
2023-02-17T04:45:56.636Z,8.19
2023-02-17T04:48:26.033Z,8.20
2023-02-17T04:50:55.566Z,8.19
2023-02-17T04:53:24.538Z,8.21
2023-02-17T04:55:56.816Z,8.22
2023-02-17T04:58:26.055Z,8.27
2023-02-17T05:00:58.843Z,8.30
2023-02-17T05:03:25.547Z,8.22
2023-02-17T05:05:59.775Z,8.26
2023-02-17T05:08:26.406Z,8.28
2023-02-17T05:11:02.184Z,8.30
2023-02-17T05:13:28.831Z,8.34
2023-02-17T05:15:55.533Z,8.35
2023-02-17T05:18:29.720Z,8.26
2023-02-17T05:20:56.449Z,8.35
2023-02-17T05:23:25.539Z,8.37
2023-02-17T05:25:58.886Z,8.35
2023-02-17T05:28:25.722Z,8.38
2023-02-17T05:30:55.991Z,8.41
2023-02-17T05:33:32.713Z,8.45
2023-02-17T05:36:07.123Z,8.40
2023-02-17T05:38:45.038Z,8.41
2023-02-17T05:41:11.708Z,8.43
2023-02-17T05:43:38.408Z,8.45
2023-02-17T05:46:14.845Z,8.59
2023-02-17T05:48:41.532Z,8.49
2023-02-17T05:51:08.371Z,8.53
2023-02-17T05:53:35.047Z,8.50
2023-02-17T05:56:05.470Z,8.49
2023-02-17T05:58:32.355Z,8.53
2023-02-17T06:00:59.025Z,8.51
2023-02-17T06:03:26.785Z,8.62
2023-02-17T06:05:56.591Z,8.62
2023-02-17T06:08:23.422Z,8.55
2023-02-17T06:10:59.082Z,8.56
2023-02-17T06:13:28.098Z,8.52
2023-02-17T06:16:00.890Z,8.51
2023-02-17T06:21:08.443Z,8.50
2023-02-17T06:23:35.177Z,8.58
2023-02-17T06:26:09.091Z,8.54
2023-02-17T06:28:35.808Z,8.54
2023-02-17T06:39:29.295Z,8.53
2023-02-17T06:42:20.788Z,8.58
2023-02-17T06:44:48.356Z,8.58
2023-02-17T06:47:50.470Z,8.66
2023-02-17T06:50:17.310Z,8.63
2023-02-17T06:52:53.634Z,8.62
2023-02-17T06:55:22.669Z,8.70
2023-02-17T06:57:53.504Z,8.71
2023-02-17T07:00:27.370Z,8.63
2023-02-17T07:02:55.007Z,8.69
2023-02-17T07:05:27.590Z,8.68
2023-02-17T07:07:58.644Z,8.69
2023-02-17T07:12:03.678Z,8.68
2023-02-17T07:14:01.733Z,8.72
2023-02-17T07:16:28.525Z,8.81
2023-02-17T07:18:55.418Z,8.75
2023-02-17T07:21:22.248Z,8.80
2023-02-17T07:23:48.988Z,8.89
2023-02-17T07:26:21.137Z,8.86
2023-02-17T07:28:47.854Z,8.86
2023-02-17T07:31:16.592Z,8.93
2023-02-17T07:33:55.464Z,8.84
2023-02-17T07:36:22.827Z,8.86
2023-02-17T07:38:49.541Z,8.92
2023-02-17T07:41:21.136Z,8.94
2023-02-17T07:43:48.663Z,8.96
2023-02-17T07:46:16.639Z,8.92
2023-02-17T07:48:43.441Z,9.00
2023-02-17T07:51:12.560Z,8.92
2023-02-17T07:53:39.451Z,8.99
2023-02-17T07:56:12.187Z,8.92
2023-02-17T07:58:41.310Z,9.00
2023-02-17T08:01:11.427Z,9.05
2023-02-17T08:03:38.973Z,9.02
2023-02-17T08:06:12.971Z,8.96
2023-02-17T08:08:58.401Z,9.00
2023-02-17T08:11:45.127Z,9.01
2023-02-17T08:14:15.173Z,8.92
2023-02-17T08:16:43.891Z,9.01
2023-02-17T08:19:14.609Z,9.02
2023-02-17T08:21:50.226Z,8.96
2023-02-17T08:24:21.033Z,9.00
2023-02-17T08:26:49.472Z,9.00
2023-02-17T08:29:16.800Z,8.90
2023-02-17T08:31:46.058Z,8.89
2023-02-17T08:34:16.280Z,8.89
2023-02-17T08:36:50.578Z,8.94
2023-02-17T08:39:18.251Z,8.93
2023-02-17T08:41:45.764Z,8.93
2023-02-17T08:44:21.880Z,8.96
2023-02-17T08:46:57.716Z,8.98
2023-02-17T08:49:25.978Z,8.95
2023-02-17T08:51:52.795Z,8.91
2023-02-17T08:54:19.636Z,8.97
2023-02-17T08:56:46.490Z,8.91
2023-02-17T08:59:15.623Z,8.93
2023-02-17T09:01:44.433Z,8.98
2023-02-17T09:04:18.891Z,8.96
2023-02-17T09:06:48.668Z,9.08
2023-02-17T09:09:17.707Z,9.09
2023-02-17T09:11:46.932Z,9.10
2023-02-17T09:14:16.057Z,9.08
2023-02-17T09:16:51.350Z,9.09
2023-02-17T09:19:18.595Z,9.07
2023-02-17T09:21:45.697Z,9.10
2023-02-17T09:24:12.656Z,9.16
2023-02-17T09:26:45.512Z,9.17
2023-02-17T09:29:21.510Z,9.15
2023-02-17T09:31:48.355Z,9.20
2023-02-17T09:34:17.742Z,9.14
2023-02-17T09:36:50.320Z,9.16
2023-02-17T09:39:17.079Z,9.14
2023-02-17T09:41:49.977Z,9.24
2023-02-17T09:44:21.274Z,9.17
2023-02-17T09:47:02.162Z,9.24
2023-02-17T09:49:58.394Z,9.23
2023-02-17T09:52:38.938Z,9.24
2023-02-17T09:55:08.602Z,9.29
2023-02-17T09:57:47.447Z,9.31
2023-02-17T10:00:18.736Z,9.35
2023-02-17T10:02:57.633Z,9.36
2023-02-17T10:05:31.225Z,9.30
2023-02-17T10:08:05.650Z,9.27
2023-02-17T10:10:40.561Z,9.37
2023-02-17T10:13:09.437Z,9.41
2023-02-17T10:15:47.440Z,9.43
2023-02-17T10:18:31.100Z,9.43
2023-02-17T10:21:07.331Z,9.44
2023-02-17T10:23:41.467Z,9.66
2023-02-17T10:26:23.299Z,9.59
2023-02-17T10:28:52.863Z,9.60
2023-02-17T10:31:38.843Z,9.71
2023-02-17T10:34:13.180Z,9.71
2023-02-17T10:37:03.618Z,9.78
2023-02-17T10:39:50.836Z,9.78
2023-02-17T10:42:34.896Z,9.91
2023-02-17T10:45:13.606Z,10.02
2023-02-17T10:47:40.738Z,10.14
2023-02-17T10:50:18.534Z,10.19
2023-02-17T10:52:45.336Z,10.25
2023-02-17T10:55:39.620Z,10.44
2023-02-17T10:58:30.041Z,10.39
2023-02-17T11:01:02.561Z,10.40
2023-02-17T11:03:33.148Z,10.46
2023-02-17T11:06:02.427Z,10.54
2023-02-17T11:08:33.317Z,10.55
2023-02-17T11:11:08.272Z,10.70
2023-02-17T11:13:38.807Z,10.88
2023-02-17T11:16:07.152Z,10.94
2023-02-17T11:18:46.414Z,11.06
2023-02-17T11:21:13.322Z,11.30
2023-02-17T11:24:08.801Z,11.19
2023-02-17T11:26:36.370Z,11.26
2023-02-17T11:29:22.289Z,11.08
2023-02-17T11:32:04.925Z,11.15
2023-02-17T11:34:36.224Z,11.22
2023-02-17T11:37:11.925Z,11.09
2023-02-17T11:39:48.690Z,10.97
2023-02-17T11:42:21.731Z,11.08
2023-02-17T11:44:49.204Z,11.07
2023-02-17T11:47:21.953Z,11.17
2023-02-17T11:50:18.604Z,10.98
2023-02-17T11:53:10.597Z,11.20
2023-02-17T11:55:37.138Z,11.06
2023-02-17T11:58:36.751Z,11.03
2023-02-17T12:01:21.952Z,11.04
2023-02-17T12:04:15.949Z,11.04
2023-02-17T12:07:03.848Z,11.05
2023-02-17T12:09:36.388Z,11.26
2023-02-17T12:12:16.483Z,11.26
2023-02-17T12:15:03.566Z,11.22
2023-02-17T12:18:01.991Z,11.32
2023-02-17T12:20:47.283Z,11.13
2023-02-17T12:23:34.922Z,11.12
2023-02-17T12:26:26.449Z,11.17
2023-02-17T12:29:30.356Z,11.05
2023-02-17T12:32:06.237Z,10.96
2023-02-17T12:34:42.489Z,10.94
2023-02-17T12:37:18.638Z,10.90
2023-02-17T12:40:10.540Z,10.98
2023-02-17T12:42:41.562Z,10.94
2023-02-17T12:45:28.083Z,10.94
2023-02-17T12:47:59.449Z,10.91
2023-02-17T12:50:30.358Z,11.02
2023-02-17T12:53:00.518Z,10.88
2023-02-17T12:55:48.930Z,10.92
2023-02-17T12:58:28.826Z,10.88
2023-02-17T13:01:09.783Z,10.85
2023-02-17T13:03:37.098Z,10.87
2023-02-17T13:06:34.413Z,10.84
2023-02-17T13:09:28.976Z,10.83
2023-02-17T13:12:23.228Z,10.77
2023-02-17T13:15:27.985Z,10.69
2023-02-17T13:18:26.307Z,10.75
2023-02-17T13:20:59.188Z,10.67
2023-02-17T13:23:30.520Z,10.75
2023-02-17T13:26:24.460Z,10.48
2023-02-17T13:28:53.449Z,10.29
2023-02-17T13:31:25.376Z,10.17
2023-02-17T13:33:57.785Z,10.13
2023-02-17T13:36:27.504Z,10.03
2023-02-17T13:39:25.369Z,10.04
2023-02-17T13:41:52.518Z,9.91
2023-02-17T13:44:39.978Z,9.89
2023-02-17T13:47:14.058Z,9.88
2023-02-17T13:49:40.884Z,9.87
2023-02-17T13:52:28.907Z,9.85
2023-02-17T13:55:07.902Z,9.89
2023-02-17T13:57:37.716Z,9.91
2023-02-17T14:00:19.711Z,9.78
2023-02-17T14:03:23.071Z,9.74
2023-02-17T14:05:53.319Z,9.77
2023-02-17T14:08:32.304Z,9.73
2023-02-17T14:11:05.320Z,9.69
2023-02-17T14:13:35.521Z,9.71
2023-02-17T14:16:02.469Z,9.62
2023-02-17T14:18:34.520Z,9.57
2023-02-17T14:21:25.136Z,9.58
2023-02-17T14:23:54.071Z,9.61
2023-02-17T14:26:44.819Z,9.64
2023-02-17T14:29:16.645Z,9.62
2023-02-17T14:31:47.870Z,9.60
2023-02-17T14:34:20.983Z,9.56
2023-02-17T14:36:47.712Z,9.59
2023-02-17T14:39:15.603Z,9.58
2023-02-17T14:41:51.683Z,9.54
2023-02-17T14:44:18.362Z,9.63
2023-02-17T14:46:48.306Z,9.63
2023-02-17T14:49:18.147Z,9.59
2023-02-17T14:51:51.525Z,9.60
2023-02-17T14:54:18.520Z,9.67
2023-02-17T14:56:51.525Z,9.60
2023-02-17T14:59:21.231Z,9.59
2023-02-17T15:01:48.034Z,9.60
2023-02-17T15:04:16.910Z,9.62
2023-02-17T15:06:51.461Z,9.64
2023-02-17T15:09:23.407Z,9.65
2023-02-17T15:11:50.548Z,9.67
2023-02-17T15:14:25.681Z,9.70
2023-02-17T15:16:52.400Z,9.72
2023-02-17T15:19:19.281Z,9.70
2023-02-17T15:21:51.984Z,9.65
2023-02-17T15:24:29.873Z,9.81
2023-02-17T15:27:07.321Z,9.69
2023-02-17T15:29:34.069Z,9.66
2023-02-17T15:32:09.680Z,9.76
2023-02-17T15:34:36.560Z,9.58
2023-02-17T15:37:03.410Z,9.63
2023-02-17T15:39:30.113Z,9.60
2023-02-17T15:42:00.152Z,9.60
2023-02-17T15:44:34.283Z,9.59
2023-02-17T15:47:00.984Z,9.66
2023-02-17T15:49:27.691Z,9.64
2023-02-17T15:51:56.900Z,9.62
2023-02-17T15:54:23.635Z,9.60
2023-02-17T15:56:51.744Z,9.59
2023-02-17T15:59:27.814Z,9.60
2023-02-17T16:02:01.271Z,9.53
2023-02-17T16:04:28.826Z,9.48
2023-02-17T16:07:02.945Z,9.56
2023-02-17T16:09:29.872Z,9.49
2023-02-17T16:11:57.383Z,9.51
2023-02-17T16:14:34.886Z,9.49
2023-02-17T16:17:02.964Z,9.55
2023-02-17T16:19:30.040Z,9.45
2023-02-17T16:21:59.161Z,9.46
2023-02-17T16:24:25.925Z,9.47
2023-02-17T16:26:52.695Z,9.42
2023-02-17T16:29:23.066Z,9.45
2023-02-17T16:31:50.311Z,9.42
2023-02-17T16:34:22.927Z,9.40
2023-02-17T16:36:54.576Z,9.37
2023-02-17T16:39:21.702Z,9.41
2023-02-17T16:41:51.811Z,9.43
2023-02-17T16:44:20.644Z,9.46
2023-02-17T16:46:52.807Z,9.51
2023-02-17T16:49:28.373Z,9.52
2023-02-17T16:51:55.116Z,9.50
2023-02-17T16:54:21.848Z,9.52
2023-02-17T16:56:54.460Z,9.57
2023-02-17T16:59:23.382Z,9.55
2023-02-17T17:01:51.221Z,9.59
2023-02-17T17:04:26.957Z,9.60
2023-02-17T17:06:54.426Z,9.66
2023-02-17T17:09:23.594Z,9.59
2023-02-17T17:11:55.603Z,9.60
2023-02-17T17:14:22.460Z,9.66
2023-02-17T17:16:55.344Z,9.69
2023-02-17T17:19:25.959Z,9.63
2023-02-17T17:21:52.952Z,9.69
2023-02-17T17:24:19.911Z,9.77
2023-02-17T17:26:54.850Z,9.76
2023-02-17T17:29:21.746Z,9.70
2023-02-17T17:31:52.085Z,9.70
2023-02-17T17:34:19.232Z,9.58
2023-02-17T17:36:49.388Z,9.54
2023-02-17T17:39:25.308Z,9.51
2023-02-17T17:42:00.378Z,9.44
2023-02-17T17:44:28.805Z,9.60
2023-02-17T17:46:55.797Z,9.47
2023-02-17T17:49:28.572Z,9.38
2023-02-17T17:51:55.331Z,9.31
2023-02-17T17:54:22.196Z,9.31
2023-02-17T17:56:49.050Z,9.23
2023-02-17T17:59:18.509Z,9.26
2023-02-17T18:01:48.329Z,9.11
2023-02-17T18:04:22.663Z,9.04
2023-02-17T18:06:51.867Z,8.95
2023-02-17T18:09:32.205Z,8.79
2023-02-17T18:12:03.982Z,8.75
2023-02-17T18:14:30.860Z,8.74
2023-02-17T18:16:58.399Z,8.70
2023-02-17T18:19:25.347Z,8.67
2023-02-17T18:21:52.821Z,8.54
2023-02-17T18:24:19.484Z,8.56
2023-02-17T18:26:51.978Z,8.39
2023-02-17T18:29:19.405Z,8.34
2023-02-17T18:31:51.765Z,8.27
2023-02-17T18:34:18.442Z,8.20
2023-02-17T18:36:47.455Z,8.24
2023-02-17T18:39:24.233Z,8.29
2023-02-17T18:41:53.758Z,8.28
2023-02-17T18:44:20.523Z,8.26
2023-02-17T18:46:54.400Z,8.13
2023-02-17T18:49:21.276Z,8.07
2023-02-17T18:51:47.985Z,7.91
2023-02-17T18:54:17.126Z,7.90
2023-02-17T18:56:51.463Z,7.80
2023-02-17T18:59:18.502Z,7.79
2023-02-17T19:01:46.888Z,7.77
2023-02-17T19:04:21.156Z,7.79
2023-02-17T19:06:47.867Z,7.73
2023-02-17T19:09:29.887Z,7.61
2023-02-17T19:11:56.841Z,7.66
2023-02-17T19:14:23.506Z,7.57
2023-02-17T19:16:50.207Z,7.65
2023-02-17T19:19:19.939Z,7.74
2023-02-17T19:21:46.676Z,7.70
2023-02-17T19:24:31.378Z,7.69
2023-02-17T19:26:58.067Z,7.69
2023-02-17T19:29:24.870Z,7.63
2023-02-17T19:31:51.724Z,7.49
2023-02-17T19:34:20.085Z,7.40
2023-02-17T19:36:49.276Z,7.34
2023-02-17T19:39:18.698Z,7.26
2023-02-17T19:41:47.734Z,7.09
2023-02-17T19:44:20.229Z,6.90
2023-02-17T19:46:47.252Z,7.00
2023-02-17T19:49:19.353Z,7.03
2023-02-17T19:51:50.161Z,7.20
2023-02-17T19:54:19.321Z,7.28
2023-02-17T19:56:49.467Z,7.26
2023-02-17T19:59:19.482Z,7.22
2023-02-17T20:01:48.832Z,7.20
2023-02-17T20:04:15.761Z,7.26
2023-02-17T20:06:53.211Z,7.19
2023-02-17T20:09:22.214Z,7.21
2023-02-17T20:11:49.542Z,7.14
2023-02-17T20:14:19.537Z,7.08
2023-02-17T20:16:48.371Z,7.09
2023-02-17T20:19:15.154Z,7.12
2023-02-17T20:21:51.991Z,7.14
2023-02-17T20:24:18.762Z,7.01
2023-02-17T20:26:47.087Z,7.01
2023-02-17T20:31:55.459Z,6.93
2023-02-17T20:34:34.101Z,6.80
2023-02-17T20:37:01.475Z,6.84
2023-02-17T20:39:28.856Z,6.94
2023-02-17T20:41:56.722Z,6.84
2023-02-17T20:44:27.709Z,6.91
2023-02-17T20:46:55.686Z,6.93
2023-02-17T20:49:22.756Z,6.89
2023-02-17T20:51:49.960Z,6.98
2023-02-17T20:54:26.239Z,6.90
2023-02-17T20:56:53.372Z,6.80
2023-02-17T20:59:28.216Z,6.92
2023-02-17T21:01:55.061Z,6.94
2023-02-17T21:04:21.744Z,6.87
2023-02-17T21:06:48.534Z,6.97
2023-02-17T21:09:18.677Z,6.95
2023-02-17T21:11:45.882Z,6.83
2023-02-17T21:14:19.816Z,6.96
2023-02-17T21:16:47.626Z,6.98
2023-02-17T21:19:16.665Z,6.91
2023-02-17T21:21:46.292Z,6.93
2023-02-17T21:24:20.505Z,6.83
2023-02-17T21:26:47.225Z,6.84
2023-02-17T21:29:19.224Z,6.85
2023-02-17T21:31:46.034Z,6.74
2023-02-17T21:34:20.270Z,6.78
2023-02-17T21:36:49.902Z,6.71
2023-02-17T21:39:19.056Z,6.76
2023-02-17T21:41:48.063Z,6.73
2023-02-17T21:44:33.432Z,6.65
2023-02-17T21:47:00.124Z,6.56
2023-02-17T21:49:26.906Z,6.44
2023-02-17T21:51:53.608Z,6.43
2023-02-17T21:54:20.229Z,6.56
2023-02-17T21:56:54.582Z,6.54
2023-02-17T21:59:21.365Z,6.43
2023-02-17T22:01:48.260Z,6.46
2023-02-17T22:04:14.961Z,6.54
2023-02-17T22:06:41.968Z,6.48
2023-02-17T22:09:09.738Z,6.55
2023-02-17T22:11:39.585Z,6.65
2023-02-17T22:14:10.306Z,6.63
2023-02-17T22:16:37.641Z,6.71
2023-02-17T22:19:06.700Z,6.56
2023-02-17T22:21:33.563Z,6.56
2023-02-17T22:24:01.237Z,6.61
2023-02-17T22:26:29.110Z,6.46
2023-02-17T22:28:58.876Z,6.36
2023-02-17T22:31:28.027Z,6.51
2023-02-17T22:34:00.189Z,6.46
2023-02-17T22:36:32.570Z,6.50
2023-02-17T22:38:59.322Z,6.41
2023-02-17T22:41:26.054Z,6.36
2023-02-17T22:43:58.139Z,6.36
2023-02-17T22:46:27.114Z,6.48
2023-02-17T22:48:54.952Z,6.42
2023-02-17T22:51:34.011Z,6.56
2023-02-17T22:54:01.151Z,6.60
2023-02-17T22:56:28.306Z,6.48
2023-02-17T22:59:03.799Z,6.48
2023-02-17T23:01:32.754Z,6.41
2023-02-17T23:03:59.575Z,6.48
2023-02-17T23:06:35.236Z,6.42
2023-02-17T23:09:02.334Z,6.48
2023-02-17T23:12:01.169Z,6.37
2023-02-17T23:14:30.711Z,6.44
2023-02-17T23:17:00.236Z,6.38
2023-02-17T23:19:27.526Z,6.40
2023-02-17T23:21:57.150Z,6.53
2023-02-17T23:24:25.211Z,6.57
2023-02-17T23:26:52.675Z,6.47
2023-02-17T23:29:19.594Z,6.42
2023-02-17T23:31:46.617Z,6.45
2023-02-17T23:34:22.122Z,6.53
2023-02-17T23:36:51.396Z,6.49
2023-02-17T23:39:23.468Z,6.43
2023-02-17T23:41:52.698Z,6.35
2023-02-17T23:44:19.305Z,6.37
2023-02-17T23:46:54.907Z,6.31
2023-02-17T23:49:21.620Z,6.42
2023-02-17T23:51:52.361Z,6.29
2023-02-17T23:54:22.317Z,6.36
2023-02-17T23:56:51.230Z,6.33
2023-02-17T23:59:17.971Z,6.20
